Time;durP1;ratioP1;P1;durP2;ratioP2;P2;SDS_P1;SDS_P2;PMS_P1;PMS_P2;Temp;Humidity;BMP_temperature;BMP_pressure;BME280_temperature;BME280_humidity;BME280_pressure;Samples;Min_cycle;Max_cycle;Signal;HPM_P1;HPM_P2
2023/09/27 00:00:09;;;;;;;17.55;10.15;;;;;;;;;;5046624;28;20030;-90
2023/09/27 00:02:36;;;;;;;17.70;10.00;;;;;;;;;;5025828;28;20025;-90
2023/09/27 00:05:06;;;;;;;15.98;10.00;;;;;;;;;;5060681;28;20021;-91
2023/09/27 00:13:53;;;;;;;19.80;9.35;;;;;;;;;;5061293;28;20071;-91
2023/09/27 00:16:20;;;;;;;15.68;9.85;;;;;;;;;;5060546;28;20056;-89
2023/09/27 00:18:46;;;;;;;13.38;9.35;;;;;;;;;;5042980;28;20033;-92
2023/09/27 00:21:12;;;;;;;13.43;9.55;;;;;;;;;;5042700;28;20080;-91
2023/09/27 00:26:54;;;;;;;17.48;9.65;;;;;;;;;;5060811;28;20433;-91
2023/09/27 00:29:20;;;;;;;14.55;9.10;;;;;;;;;;5042825;28;20025;-91
2023/09/27 00:31:46;;;;;;;13.73;9.48;;;;;;;;;;5042774;28;20087;-91
2023/09/27 00:34:12;;;;;;;16.33;9.90;;;;;;;;;;5060531;28;20056;-90
2023/09/27 00:36:39;;;;;;;13.50;9.60;;;;;;;;;;5059948;28;20025;-91
2023/09/27 00:39:05;;;;;;;16.48;9.35;;;;;;;;;;5042578;28;20029;-91
2023/09/27 00:41:31;;;;;;;16.17;9.30;;;;;;;;;;5039068;28;20064;-93
2023/09/27 00:43:57;;;;;;;17.73;9.85;;;;;;;;;;5039979;28;20029;-91
2023/09/27 00:46:23;;;;;;;19.85;10.95;;;;;;;;;;5038170;28;20083;-93
2023/09/27 00:48:49;;;;;;;16.15;10.63;;;;;;;;;;5058048;28;20029;-91
2023/09/27 00:51:15;;;;;;;13.65;9.82;;;;;;;;;;5060084;28;20096;-91
2023/09/27 00:54:00;;;;;;;14.73;9.95;;;;;;;;;;5059656;28;20477;-91
2023/09/27 00:56:26;;;;;;;13.52;10.10;;;;;;;;;;5038975;28;20048;-90
2023/09/27 00:58:53;;;;;;;19.27;9.63;;;;;;;;;;5038792;28;20051;-90
2023/09/27 01:01:19;;;;;;;13.30;10.38;;;;;;;;;;5059271;28;20025;-90
2023/09/27 01:03:46;;;;;;;12.75;9.82;;;;;;;;;;5041658;28;20025;-91
2023/09/27 01:06:12;;;;;;;13.65;9.98;;;;;;;;;;5042084;28;20029;-90
2023/09/27 01:15:00;;;;;;;16.63;9.88;;;;;;;;;;5060022;28;20434;-91
2023/09/27 01:17:26;;;;;;;14.48;9.60;;;;;;;;;;5041643;28;20135;-91
2023/09/27 01:19:52;;;;;;;17.58;9.93;;;;;;;;;;5041922;28;20029;-91
2023/09/27 01:22:18;;;;;;;15.20;9.45;;;;;;;;;;5041991;28;20120;-91
2023/09/27 01:27:49;;;;;;;14.02;9.98;;;;;;;;;;5059116;28;20028;-89
2023/09/27 01:30:15;;;;;;;13.82;9.82;;;;;;;;;;5041080;28;20442;-90
2023/09/27 01:32:42;;;;;;;14.70;9.88;;;;;;;;;;5059175;28;20032;-91
2023/09/27 01:35:08;;;;;;;14.50;9.10;;;;;;;;;;5059035;28;20025;-91
2023/09/27 01:37:34;;;;;;;16.17;9.70;;;;;;;;;;5041182;28;20327;-91
2023/09/27 01:43:04;;;;;;;14.50;9.18;;;;;;;;;;5059013;28;20039;-91
2023/09/27 01:45:31;;;;;;;15.23;9.82;;;;;;;;;;5059011;28;20048;-91
2023/09/27 01:47:58;;;;;;;13.02;8.60;;;;;;;;;;5037154;28;20026;-91
2023/09/27 01:50:25;;;;;;;12.40;9.05;;;;;;;;;;5039210;28;20025;-89
2023/09/27 01:52:51;;;;;;;13.88;8.98;;;;;;;;;;5038017;28;20053;-91
2023/09/27 01:55:18;;;;;;;11.90;8.73;;;;;;;;;;5037104;28;20041;-91
2023/09/27 01:57:45;;;;;;;14.98;9.18;;;;;;;;;;5038112;28;20068;-92
2023/09/27 02:00:14;;;;;;;18.90;9.10;;;;;;;;;;5058703;28;20032;-91
2023/09/27 02:02:40;;;;;;;15.43;9.52;;;;;;;;;;5041443;28;20059;-91
2023/09/27 02:05:06;;;;;;;20.38;9.57;;;;;;;;;;5059369;28;20021;-92
2023/09/27 02:07:33;;;;;;;14.13;9.50;;;;;;;;;;5040993;28;20042;-90
2023/09/27 02:09:59;;;;;;;18.05;9.57;;;;;;;;;;5058550;28;20071;-91
2023/09/27 02:12:25;;;;;;;16.85;9.85;;;;;;;;;;5040919;28;20029;-91
2023/09/27 02:14:51;;;;;;;16.45;9.70;;;;;;;;;;5058730;28;20031;-91
2023/09/27 02:17:17;;;;;;;13.98;9.30;;;;;;;;;;5040908;28;20419;-91
2023/09/27 02:19:43;;;;;;;11.73;8.52;;;;;;;;;;5040698;28;20029;-91
2023/09/27 02:22:09;;;;;;;14.35;8.70;;;;;;;;;;5040787;28;20304;-91
2023/09/27 02:24:36;;;;;;;13.68;9.10;;;;;;;;;;5040445;28;20078;-92
2023/09/27 02:27:02;;;;;;;13.98;9.07;;;;;;;;;;5058170;28;20031;-91
2023/09/27 02:29:29;;;;;;;14.52;8.90;;;;;;;;;;5058020;28;20407;-91
2023/09/27 02:31:55;;;;;;;14.73;9.13;;;;;;;;;;5057299;28;20025;-91
2023/09/27 02:34:21;;;;;;;15.60;8.75;;;;;;;;;;5058031;28;20471;-92
2023/09/27 02:36:47;;;;;;;12.20;8.48;;;;;;;;;;5057185;28;20374;-91
2023/09/27 02:39:14;;;;;;;15.10;8.38;;;;;;;;;;5056733;28;20037;-91
2023/09/27 02:41:40;;;;;;;16.27;9.32;;;;;;;;;;5056968;28;20029;-92
2023/09/27 02:44:06;;;;;;;17.90;8.85;;;;;;;;;;5056839;28;20112;-93
2023/09/27 02:46:32;;;;;;;12.93;8.70;;;;;;;;;;5057808;28;20052;-93
2023/09/27 02:48:58;;;;;;;14.05;8.00;;;;;;;;;;5058024;28;20024;-93
2023/09/27 02:51:25;;;;;;;16.00;8.60;;;;;;;;;;5056945;28;20021;-93
2023/09/27 02:53:51;;;;;;;16.45;8.68;;;;;;;;;;5057770;28;20037;-93
2023/09/27 02:56:17;;;;;;;13.50;8.55;;;;;;;;;;5057888;28;20021;-92
2023/09/27 02:58:44;;;;;;;10.45;8.15;;;;;;;;;;5059716;28;20040;-93
2023/09/27 03:01:11;;;;;;;17.73;8.90;;;;;;;;;;5060061;28;20025;-92
2023/09/27 03:03:38;;;;;;;18.23;9.25;;;;;;;;;;5073809;28;20048;-93
2023/09/27 03:06:05;;;;;;;13.55;8.40;;;;;;;;;;5016917;28;20781;-92
2023/09/27 03:14:38;;;;;;;15.18;9.98;;;;;;;;;;5037598;28;20036;-92
2023/09/27 03:17:04;;;;;;;19.75;9.55;;;;;;;;;;5020027;28;20089;-93
2023/09/27 03:19:30;;;;;;;16.67;9.35;;;;;;;;;;5059204;28;20043;-92
2023/09/27 03:21:57;;;;;;;17.85;10.05;;;;;;;;;;5077714;28;20020;-92
2023/09/27 03:24:25;;;;;;;15.07;10.32;;;;;;;;;;5077321;28;20049;-93
2023/09/27 03:26:52;;;;;;;16.85;10.15;;;;;;;;;;5077652;28;20399;-91
2023/09/27 03:29:18;;;;;;;21.15;10.45;;;;;;;;;;5041352;28;20029;-91
2023/09/27 03:31:44;;;;;;;20.92;9.85;;;;;;;;;;5037317;28;20018;-90
2023/09/27 03:34:10;;;;;;;15.93;10.13;;;;;;;;;;5045290;28;20032;-92
2023/09/27 03:36:36;;;;;;;14.73;9.95;;;;;;;;;;5057202;28;20033;-91
2023/09/27 03:39:02;;;;;;;15.57;10.25;;;;;;;;;;5039637;28;20060;-91
2023/09/27 03:41:28;;;;;;;18.05;10.43;;;;;;;;;;5054923;28;20047;-91
2023/09/27 03:43:54;;;;;;;13.98;9.82;;;;;;;;;;5056378;28;20128;-90
2023/09/27 03:46:21;;;;;;;13.48;9.90;;;;;;;;;;5057418;28;20307;-92
2023/09/27 03:48:47;;;;;;;16.00;10.02;;;;;;;;;;5057483;28;20096;-92
2023/09/27 03:51:13;;;;;;;13.20;9.18;;;;;;;;;;5036685;28;20025;-91
2023/09/27 03:54:12;;;;;;;13.25;9.55;;;;;;;;;;5040672;28;20068;-88
2023/09/27 03:56:38;;;;;;;16.83;10.35;;;;;;;;;;5039594;28;20389;-91
2023/09/27 03:59:04;;;;;;;17.35;11.45;;;;;;;;;;5036109;28;20060;-91
2023/09/27 04:01:30;;;;;;;23.30;12.65;;;;;;;;;;5039356;28;20037;-91
2023/09/27 04:03:58;;;;;;;18.55;11.73;;;;;;;;;;5036181;28;20033;-89
2023/09/27 04:06:24;;;;;;;19.75;12.65;;;;;;;;;;5026976;28;20063;-89
2023/09/27 04:11:55;;;;;;;24.17;13.10;;;;;;;;;;5056116;28;20035;-91
2023/09/27 04:14:21;;;;;;;15.73;11.85;;;;;;;;;;5044030;28;20036;-91
2023/09/27 04:16:47;;;;;;;16.95;10.95;;;;;;;;;;5047254;28;20086;-91
2023/09/27 04:19:13;;;;;;;16.88;10.90;;;;;;;;;;5036038;28;20026;-90
2023/09/27 04:21:40;;;;;;;13.93;10.45;;;;;;;;;;5036276;28;20032;-91
2023/09/27 04:27:36;;;;;;;16.52;10.48;;;;;;;;;;5040778;28;20039;-93
2023/09/27 04:30:04;;;;;;;14.23;10.27;;;;;;;;;;5039409;28;20029;-92
2023/09/27 04:32:30;;;;;;;17.90;10.63;;;;;;;;;;5040688;28;20029;-91
2023/09/27 04:34:57;;;;;;;14.35;10.25;;;;;;;;;;5039434;28;20324;-91
2023/09/27 04:37:23;;;;;;;13.20;10.18;;;;;;;;;;5039525;28;20107;-91
2023/09/27 04:45:56;;;;;;;16.35;10.50;;;;;;;;;;5040523;28;20083;-92
2023/09/27 04:48:22;;;;;;;20.17;11.43;;;;;;;;;;5039233;28;20067;-91
2023/09/27 04:50:48;;;;;;;22.80;12.52;;;;;;;;;;5039417;28;20400;-89
2023/09/27 04:53:14;;;;;;;14.43;11.27;;;;;;;;;;5056045;28;20415;-89
2023/09/27 04:55:41;;;;;;;20.50;10.93;;;;;;;;;;5019331;28;20408;-88
2023/09/27 04:58:07;;;;;;;13.82;10.98;;;;;;;;;;5019163;28;20064;-90
2023/09/27 05:00:33;;;;;;;19.67;11.27;;;;;;;;;;5039441;28;20122;-89
2023/09/27 05:02:59;;;;;;;15.90;10.95;;;;;;;;;;5032946;28;20366;-90
2023/09/27 05:05:25;;;;;;;15.10;10.32;;;;;;;;;;5065336;28;20100;-89
2023/09/27 05:07:51;;;;;;;17.77;10.40;;;;;;;;;;5059994;28;20021;-90
2023/09/27 05:10:17;;;;;;;17.02;10.00;;;;;;;;;;5042067;28;20036;-89
2023/09/27 05:12:43;;;;;;;17.25;10.07;;;;;;;;;;5059790;28;20354;-90
2023/09/27 05:15:09;;;;;;;25.98;10.43;;;;;;;;;;5050502;28;20025;-90
2023/09/27 05:17:36;;;;;;;14.68;9.55;;;;;;;;;;5040644;28;20412;-91
2023/09/27 05:20:06;;;;;;;13.60;9.45;;;;;;;;;;5057441;28;20099;-91
2023/09/27 05:22:33;;;;;;;14.95;9.63;;;;;;;;;;5037620;28;20021;-91
2023/09/27 05:24:59;;;;;;;17.33;10.10;;;;;;;;;;5059192;28;20033;-91
2023/09/27 05:27:25;;;;;;;20.73;10.35;;;;;;;;;;5059904;28;20422;-92
2023/09/27 05:29:53;;;;;;;16.13;9.90;;;;;;;;;;5050587;28;20029;-92
2023/09/27 05:32:19;;;;;;;14.57;9.27;;;;;;;;;;5042673;28;20058;-92
2023/09/27 05:34:45;;;;;;;11.88;9.18;;;;;;;;;;5025931;28;20446;-87
2023/09/27 05:37:11;;;;;;;21.60;9.95;;;;;;;;;;5025583;28;20499;-88
2023/09/27 05:39:37;;;;;;;19.15;9.23;;;;;;;;;;5038902;28;20403;-88
2023/09/27 05:42:03;;;;;;;14.25;9.30;;;;;;;;;;5071948;28;20040;-87
2023/09/27 05:44:30;;;;;;;13.50;8.88;;;;;;;;;;5078926;28;20020;-87
2023/09/27 05:46:56;;;;;;;12.48;9.60;;;;;;;;;;5061104;28;20087;-86
2023/09/27 05:49:22;;;;;;;17.25;9.50;;;;;;;;;;5060912;28;20025;-87
2023/09/27 05:51:48;;;;;;;14.13;9.27;;;;;;;;;;5045952;28;20033;-86
2023/09/27 05:54:14;;;;;;;12.77;9.35;;;;;;;;;;5042988;28;20055;-86
2023/09/27 05:56:40;;;;;;;20.27;9.88;;;;;;;;;;5038923;28;20033;-86
2023/09/27 05:59:11;;;;;;;12.70;9.23;;;;;;;;;;5037856;28;20054;-86
2023/09/27 06:01:37;;;;;;;14.48;9.13;;;;;;;;;;5038806;28;20029;-87
2023/09/27 06:04:04;;;;;;;15.30;9.73;;;;;;;;;;5036871;28;20029;-86
2023/09/27 06:06:30;;;;;;;13.98;9.00;;;;;;;;;;5037444;28;20033;-88
2023/09/27 06:08:56;;;;;;;17.15;8.85;;;;;;;;;;5038753;28;20025;-88
2023/09/27 06:11:22;;;;;;;13.63;8.32;;;;;;;;;;5037619;28;20017;-88
2023/09/27 06:13:48;;;;;;;19.63;8.55;;;;;;;;;;5038525;28;20025;-88
2023/09/27 06:16:16;;;;;;;17.23;8.35;;;;;;;;;;5038640;28;20021;-88
2023/09/27 06:18:42;;;;;;;12.63;8.18;;;;;;;;;;5038484;28;20056;-88
2023/09/27 06:21:09;;;;;;;10.02;7.40;;;;;;;;;;5037249;28;20072;-87
2023/09/27 06:23:35;;;;;;;15.02;7.68;;;;;;;;;;5037311;28;20363;-88
2023/09/27 06:26:02;;;;;;;12.80;7.57;;;;;;;;;;5038435;28;20032;-87
2023/09/27 06:28:28;;;;;;;9.45;7.03;;;;;;;;;;5036979;28;20026;-87
2023/09/27 06:30:54;;;;;;;13.60;7.85;;;;;;;;;;5038134;28;20028;-88
2023/09/27 06:33:20;;;;;;;17.33;7.80;;;;;;;;;;5038227;28;20059;-87
2023/09/27 06:35:46;;;;;;;13.05;7.95;;;;;;;;;;5038063;28;20021;-88
2023/09/27 06:38:13;;;;;;;12.18;7.65;;;;;;;;;;5038060;28;20076;-87
2023/09/27 06:40:39;;;;;;;13.88;7.07;;;;;;;;;;5037995;28;20430;-88
2023/09/27 06:43:05;;;;;;;10.43;7.57;;;;;;;;;;5037078;28;20475;-88
2023/09/27 06:45:32;;;;;;;13.77;7.90;;;;;;;;;;5036102;28;20036;-88
2023/09/27 06:47:58;;;;;;;13.65;7.25;;;;;;;;;;5037580;28;20112;-89
2023/09/27 06:50:24;;;;;;;14.50;6.95;;;;;;;;;;5038261;28;20025;-91
2023/09/27 06:52:50;;;;;;;14.82;7.88;;;;;;;;;;5036683;28;20363;-91
2023/09/27 06:55:16;;;;;;;11.20;7.90;;;;;;;;;;5036603;28;20029;-93
2023/09/27 06:57:44;;;;;;;12.15;7.43;;;;;;;;;;5037893;28;20112;-91
2023/09/27 07:00:24;;;;;;;18.15;7.32;;;;;;;;;;5057833;28;20056;-92
2023/09/27 07:02:50;;;;;;;11.90;6.85;;;;;;;;;;5057871;28;20025;-92
2023/09/27 07:05:16;;;;;;;11.88;7.50;;;;;;;;;;5040219;28;20025;-92
2023/09/27 07:07:44;;;;;;;11.18;7.05;;;;;;;;;;5040020;28;20021;-92
2023/09/27 07:10:10;;;;;;;11.02;7.05;;;;;;;;;;5039973;28;20079;-91
2023/09/27 07:12:37;;;;;;;12.02;6.60;;;;;;;;;;5039710;28;20036;-92
2023/09/27 07:15:14;;;;;;;10.52;7.00;;;;;;;;;;5057633;28;20056;-91
2023/09/27 07:17:41;;;;;;;8.85;6.63;;;;;;;;;;5040168;28;20067;-92
2023/09/27 07:20:23;;;;;;;15.95;8.07;;;;;;;;;;5057541;28;20403;-93
2023/09/27 07:22:49;;;;;;;15.27;7.53;;;;;;;;;;5039771;28;20029;-91
2023/09/27 07:25:18;;;;;;;15.88;7.68;;;;;;;;;;5039615;28;20033;-92
2023/09/27 07:27:46;;;;;;;14.02;7.55;;;;;;;;;;5057294;28;20052;-92
2023/09/27 07:30:17;;;;;;;14.65;7.20;;;;;;;;;;5057438;28;20017;-91
2023/09/27 07:32:43;;;;;;;;;;;;;;;;;;5057679;28;20025;-93
2023/09/27 07:35:11;;;;;;;16.30;7.40;;;;;;;;;;5057754;28;19951;-91
2023/09/27 07:37:37;;;;;;;17.23;6.22;;;;;;;;;;5057160;28;20025;-93
2023/09/27 07:40:08;;;;;;;10.10;6.40;;;;;;;;;;5039973;28;20079;-91
2023/09/27 07:42:34;;;;;;;14.57;7.13;;;;;;;;;;5057217;28;20025;-91
2023/09/27 07:45:01;;;;;;;23.67;7.20;;;;;;;;;;5039906;28;20413;-92
2023/09/27 07:47:27;;;;;;;16.80;6.57;;;;;;;;;;5039651;28;20025;-91
2023/09/27 07:49:54;;;;;;;14.50;6.90;;;;;;;;;;5057224;28;20082;-91
2023/09/27 07:52:20;;;;;;;11.13;6.50;;;;;;;;;;5057121;28;20411;-92
2023/09/27 07:54:47;;;;;;;12.25;6.20;;;;;;;;;;5039629;28;20055;-91
2023/09/27 07:57:14;;;;;;;10.13;5.57;;;;;;;;;;5060416;28;20044;-91
2023/09/27 07:59:40;;;;;;;9.43;6.20;;;;;;;;;;5060918;28;20052;-91
2023/09/27 08:02:09;;;;;;;13.38;6.35;;;;;;;;;;5043463;28;20075;-91
2023/09/27 08:04:39;;;;;;;10.55;6.05;;;;;;;;;;5043229;28;20449;-91
2023/09/27 08:07:05;;;;;;;16.33;5.95;;;;;;;;;;5060947;28;20021;-91
2023/09/27 08:09:31;;;;;;;12.02;6.10;;;;;;;;;;5043264;28;20033;-92
2023/09/27 08:11:58;;;;;;;10.95;5.55;;;;;;;;;;5060412;28;20052;-93
2023/09/27 08:14:26;;;;;;;11.95;5.43;;;;;;;;;;5060692;28;20021;-91
2023/09/27 08:16:52;;;;;;;7.95;5.05;;;;;;;;;;5060652;28;20025;-90
2023/09/27 08:19:18;;;;;;;9.05;5.68;;;;;;;;;;5060753;28;20025;-92
2023/09/27 08:21:44;;;;;;;12.70;5.88;;;;;;;;;;5060779;28;20031;-92
2023/09/27 08:24:10;;;;;;;18.05;5.50;;;;;;;;;;5060635;28;20025;-92
2023/09/27 08:26:36;;;;;;;10.27;5.63;;;;;;;;;;5042588;28;20033;-93
2023/09/27 08:29:02;;;;;;;10.82;5.50;;;;;;;;;;5060407;28;20025;-93
2023/09/27 08:31:31;;;;;;;14.75;5.63;;;;;;;;;;5060250;28;20404;-91
2023/09/27 08:33:57;;;;;;;12.30;5.88;;;;;;;;;;5042898;28;20033;-91
2023/09/27 08:36:23;;;;;;;13.23;6.30;;;;;;;;;;5053932;28;20457;-85
2023/09/27 08:38:49;;;;;;;12.07;4.70;;;;;;;;;;5043029;28;20427;-87
2023/09/27 08:41:16;;;;;;;12.13;5.22;;;;;;;;;;5038858;28;20025;-87
2023/09/27 08:43:43;;;;;;;10.23;4.82;;;;;;;;;;5042649;28;20033;-88
2023/09/27 08:46:12;;;;;;;8.25;5.07;;;;;;;;;;5035265;28;20059;-87
2023/09/27 08:48:38;;;;;;;9.10;4.80;;;;;;;;;;5071245;28;20024;-88
2023/09/27 08:51:06;;;;;;;9.63;5.03;;;;;;;;;;5078255;28;20031;-89
2023/09/27 08:53:34;;;;;;;10.45;4.68;;;;;;;;;;5042445;28;20025;-89
2023/09/27 08:56:01;;;;;;;10.68;4.70;;;;;;;;;;5060163;28;20037;-88
2023/09/27 08:58:29;;;;;;;9.15;4.70;;;;;;;;;;5059678;28;20457;-87
2023/09/27 09:00:55;;;;;;;12.45;4.88;;;;;;;;;;5042049;28;20120;-88
2023/09/27 09:03:21;;;;;;;9.05;4.47;;;;;;;;;;5059352;28;20025;-88
2023/09/27 09:05:48;;;;;;;11.63;4.68;;;;;;;;;;5059157;28;20029;-89
2023/09/27 09:08:14;;;;;;;10.05;4.10;;;;;;;;;;5055705;28;20350;-89
2023/09/27 09:10:43;;;;;;;10.07;4.57;;;;;;;;;;5046602;28;20037;-88
2023/09/27 09:13:09;;;;;;;7.25;4.13;;;;;;;;;;5041249;28;20068;-88
2023/09/27 09:15:40;;;;;;;11.73;4.50;;;;;;;;;;5042191;28;20025;-87
2023/09/27 09:18:08;;;;;;;14.17;4.23;;;;;;;;;;5044188;28;20025;-89
2023/09/27 09:20:48;;;;;;;15.00;5.22;;;;;;;;;;5059540;28;20286;-89
2023/09/27 09:23:31;;;;;;;8.63;4.82;;;;;;;;;;5041861;28;20033;-90
2023/09/27 09:26:36;;;;;;;8.65;4.03;;;;;;;;;;5041845;28;20116;-89
2023/09/27 09:29:02;;;;;;;9.98;4.28;;;;;;;;;;5023705;28;20021;-86
2023/09/27 09:31:30;;;;;;;11.20;4.13;;;;;;;;;;5065704;28;20021;-90
2023/09/27 09:34:06;;;;;;;8.30;4.45;;;;;;;;;;5053096;28;20021;-89
2023/09/27 09:36:33;;;;;;;8.52;4.38;;;;;;;;;;5038579;28;20128;-89
2023/09/27 09:42:34;;;;;;;9.43;4.68;;;;;;;;;;5052893;28;20481;-91
2023/09/27 09:45:02;;;;;;;7.75;5.00;;;;;;;;;;5030457;28;20064;-89
2023/09/27 09:47:30;;;;;;;6.03;4.85;;;;;;;;;;5020346;28;20085;-90
2023/09/27 09:49:56;;;;;;;9.18;4.70;;;;;;;;;;5052680;28;20101;-89
2023/09/27 09:52:27;;;;;;;12.98;4.85;;;;;;;;;;5038840;28;20028;-90
2023/09/27 09:58:08;;;;;;;10.50;4.85;;;;;;;;;;5078525;28;20102;-89
2023/09/27 10:00:39;;;;;;;11.07;4.60;;;;;;;;;;5051541;28;20057;-89
2023/09/27 10:03:09;;;;;;;16.77;5.05;;;;;;;;;;5042566;28;20033;-89
2023/09/27 10:05:39;;;;;;;15.52;4.82;;;;;;;;;;5052977;28;20030;-90
2023/09/27 10:08:06;;;;;;;12.82;4.50;;;;;;;;;;5027156;28;20030;-89
2023/09/27 10:10:33;;;;;;;9.98;4.95;;;;;;;;;;5024249;28;20022;-90
2023/09/27 10:12:59;;;;;;;11.93;5.25;;;;;;;;;;5038530;28;20032;-88
2023/09/27 10:15:26;;;;;;;8.32;4.85;;;;;;;;;;5038122;28;20021;-88
2023/09/27 10:17:52;;;;;;;11.90;5.03;;;;;;;;;;5038479;28;20025;-88
2023/09/27 10:20:22;;;;;;;6.72;4.40;;;;;;;;;;5030547;28;20102;-89
2023/09/27 10:22:49;;;;;;;10.88;4.53;;;;;;;;;;5021043;28;20028;-89
2023/09/27 10:25:24;;;;;;;11.55;4.57;;;;;;;;;;5038314;28;20030;-89
2023/09/27 10:28:15;;;;;;;10.73;4.82;;;;;;;;;;5037953;28;20029;-89
2023/09/27 10:30:41;;;;;;;9.43;4.53;;;;;;;;;;5020789;28;20404;-89
2023/09/27 10:33:22;;;;;;;9.80;4.82;;;;;;;;;;5038480;28;20029;-88
2023/09/27 10:36:08;;;;;;;12.85;4.75;;;;;;;;;;5038088;28;20029;-89
2023/09/27 10:38:44;;;;;;;10.60;5.10;;;;;;;;;;5040171;28;20064;-89
2023/09/27 10:41:31;;;;;;;13.00;5.07;;;;;;;;;;5057895;28;20025;-88
2023/09/27 10:43:57;;;;;;;11.38;4.60;;;;;;;;;;5031155;28;20064;-90
2023/09/27 10:46:24;;;;;;;17.77;6.00;;;;;;;;;;5018388;28;20045;-88
2023/09/27 10:48:54;;;;;;;11.32;5.35;;;;;;;;;;5020420;28;20107;-88
2023/09/27 10:51:21;;;;;;;12.77;4.47;;;;;;;;;;5038606;28;20024;-88
2023/09/27 10:53:48;;;;;;;6.60;4.03;;;;;;;;;;5052986;28;20392;-90
2023/09/27 10:56:33;;;;;;;7.25;4.65;;;;;;;;;;5037212;28;20044;-87
2023/09/27 10:58:59;;;;;;;12.55;4.90;;;;;;;;;;5016738;28;20065;-87
2023/09/27 11:01:25;;;;;;;7.65;4.60;;;;;;;;;;5037967;28;20360;-87
2023/09/27 11:03:58;;;;;;;12.98;4.90;;;;;;;;;;5037529;28;20045;-88
2023/09/27 11:06:24;;;;;;;17.25;4.93;;;;;;;;;;5037641;28;20025;-87
2023/09/27 11:08:50;;;;;;;11.07;4.45;;;;;;;;;;5037569;28;20025;-88
2023/09/27 11:14:46;;;;;;;10.30;4.57;;;;;;;;;;4952898;29;20031;-85
2023/09/27 11:17:25;;;;;;;6.80;4.32;;;;;;;;;;4938495;29;20046;-83
2023/09/27 11:19:51;;;;;;;8.85;4.18;;;;;;;;;;4938465;29;20059;-84
2023/09/27 11:22:26;;;;;;;9.52;4.28;;;;;;;;;;4938276;29;20032;-84
2023/09/27 11:24:53;;;;;;;7.90;4.50;;;;;;;;;;4942674;29;20078;-83
2023/09/27 11:27:19;;;;;;;10.57;4.72;;;;;;;;;;4957510;29;20158;-84
2023/09/27 11:29:50;;;;;;;9.63;4.53;;;;;;;;;;4940605;29;20031;-84
2023/09/27 11:32:16;;;;;;;8.77;4.53;;;;;;;;;;4960852;28;20035;-84
2023/09/27 11:34:42;;;;;;;10.30;4.63;;;;;;;;;;4961176;29;20093;-84
2023/09/27 11:37:17;;;;;;;10.38;4.50;;;;;;;;;;4941624;29;20043;-82
2023/09/27 11:39:50;;;;;;;12.70;4.38;;;;;;;;;;4942247;29;20086;-84
2023/09/27 11:42:23;;;;;;;7.53;4.40;;;;;;;;;;4942223;29;20102;-84
2023/09/27 11:45:07;;;;;;;9.68;4.88;;;;;;;;;;4962933;28;20038;-84
2023/09/27 11:47:46;;;;;;;12.57;5.47;;;;;;;;;;5039007;28;20427;-85
2023/09/27 11:50:13;;;;;;;11.40;4.20;;;;;;;;;;5037134;28;20026;-84
2023/09/27 11:52:39;;;;;;;10.90;3.97;;;;;;;;;;5003576;28;20040;-84
2023/09/27 11:55:06;;;;;;;7.40;4.07;;;;;;;;;;5036422;28;20037;-84
2023/09/27 12:00:35;;;;;;;10.15;3.88;;;;;;;;;;5034985;28;20057;-85
2023/09/27 12:03:04;;;;;;;13.13;3.72;;;;;;;;;;5033573;28;20049;-84
2023/09/27 12:08:15;;;;;;;10.48;3.90;;;;;;;;;;5024845;28;20072;-85
2023/09/27 12:10:41;;;;;;;11.73;3.50;;;;;;;;;;5041165;28;20017;-84
2023/09/27 12:13:07;;;;;;;15.32;4.05;;;;;;;;;;5014126;28;20029;-85
2023/09/27 12:15:33;;;;;;;11.73;4.30;;;;;;;;;;5010737;28;20040;-84
2023/09/27 12:18:18;;;;;;;12.73;4.20;;;;;;;;;;5039036;28;20136;-84
2023/09/27 12:20:45;;;;;;;8.35;3.58;;;;;;;;;;5022886;28;20022;-84
2023/09/27 12:25:57;;;;;;;14.68;4.30;;;;;;;;;;5029936;28;20100;-84
2023/09/27 12:28:23;;;;;;;8.70;3.83;;;;;;;;;;5021699;28;20021;-84
2023/09/27 12:33:34;;;;;;;7.85;3.63;;;;;;;;;;5020759;28;20130;-84
2023/09/27 12:36:00;;;;;;;6.10;3.25;;;;;;;;;;5026597;28;20048;-84
2023/09/27 12:38:26;;;;;;;11.85;4.18;;;;;;;;;;5040234;28;20025;-85
2023/09/27 12:43:39;;;;;;;7.03;3.35;;;;;;;;;;5039261;28;20052;-84
2023/09/27 12:46:05;;;;;;;10.60;4.30;;;;;;;;;;5038435;28;20117;-84
2023/09/27 12:48:31;;;;;;;7.10;3.53;;;;;;;;;;5039923;28;20029;-84
2023/09/27 12:51:16;;;;;;;6.57;3.92;;;;;;;;;;5039837;28;20021;-83
2023/09/27 12:53:43;;;;;;;8.75;3.88;;;;;;;;;;5039439;28;20148;-84
2023/09/27 12:56:09;;;;;;;11.57;4.00;;;;;;;;;;5038896;28;20030;-84
2023/09/27 13:01:20;;;;;;;9.05;3.40;;;;;;;;;;5032945;28;20328;-83
2023/09/27 13:03:49;;;;;;;7.93;3.60;;;;;;;;;;5019623;28;20026;-84
2023/09/27 13:06:34;;;;;;;11.20;3.78;;;;;;;;;;5019760;28;20020;-84
2023/09/27 13:14:31;;;;;;;8.85;3.75;;;;;;;;;;5020214;28;20041;-85
2023/09/27 13:16:57;;;;;;;12.20;3.85;;;;;;;;;;4999213;28;20038;-87
2023/09/27 13:19:23;;;;;;;9.70;4.10;;;;;;;;;;5005321;28;20121;-91
2023/09/27 13:22:08;;;;;;;11.95;3.90;;;;;;;;;;5039281;28;20108;-89
2023/09/27 13:30:41;;;;;;;7.95;4.18;;;;;;;;;;5029735;28;20029;-92
2023/09/27 13:33:07;;;;;;;11.65;4.03;;;;;;;;;;5020066;28;20036;-92
2023/09/27 13:35:33;;;;;;;10.07;4.05;;;;;;;;;;5001411;28;20438;-92
2023/09/27 13:37:59;;;;;;;9.70;3.90;;;;;;;;;;5038555;28;20323;-93
2023/09/27 13:46:33;;;;;;;8.48;4.00;;;;;;;;;;5019295;28;20064;-93
2023/09/27 13:52:04;;;;;;;10.48;3.65;;;;;;;;;;5039383;28;20378;-93
2023/09/27 13:54:30;;;;;;;9.55;3.83;;;;;;;;;;5020356;28;20447;-91
2023/09/27 13:56:58;;;;;;;8.50;4.20;;;;;;;;;;5018103;28;20121;-93
2023/09/27 13:59:43;;;;;;;6.40;4.07;;;;;;;;;;5029990;28;20037;-93
2023/09/27 14:02:14;;;;;;;5.75;3.63;;;;;;;;;;5041106;28;20488;-93
2023/09/27 14:04:40;;;;;;;13.40;4.60;;;;;;;;;;5041116;28;20032;-90
2023/09/27 14:09:51;;;;;;;10.98;4.43;;;;;;;;;;5058704;28;20032;-94
2023/09/27 14:12:35;;;;;;;9.80;4.10;;;;;;;;;;5039753;28;20025;-90
2023/09/27 14:15:21;;;;;;;7.80;4.15;;;;;;;;;;5038628;28;20033;-91
2023/09/27 14:17:47;;;;;;;11.07;4.10;;;;;;;;;;5038386;28;20026;-92
2023/09/27 14:20:32;;;;;;;10.30;4.13;;;;;;;;;;5029586;28;20022;-90
2023/09/27 14:22:58;;;;;;;6.35;3.90;;;;;;;;;;5017742;28;20034;-91
2023/09/27 14:28:41;;;;;;;10.23;4.25;;;;;;;;;;5038481;28;20064;-92
2023/09/27 14:31:07;;;;;;;9.35;4.82;;;;;;;;;;5031869;28;20028;-93
2023/09/27 14:33:34;;;;;;;12.10;5.10;;;;;;;;;;5058397;28;20427;-92
2023/09/27 14:36:03;;;;;;;7.85;4.43;;;;;;;;;;5040609;28;20120;-93
2023/09/27 14:38:29;;;;;;;11.65;4.70;;;;;;;;;;5040475;28;20029;-93
2023/09/27 14:40:55;;;;;;;12.60;4.30;;;;;;;;;;5058324;28;20377;-93
2023/09/27 14:43:21;;;;;;;11.73;4.28;;;;;;;;;;5057303;28;20051;-93
2023/09/27 14:45:47;;;;;;;12.50;4.43;;;;;;;;;;5038164;28;20029;-92
2023/09/27 14:50:58;;;;;;;11.48;4.80;;;;;;;;;;5059510;28;20124;-91
2023/09/27 14:53:24;;;;;;;12.73;5.13;;;;;;;;;;5040024;28;20088;-90
2023/09/27 14:58:35;;;;;;;11.95;4.88;;;;;;;;;;5057826;28;20060;-92
2023/09/27 15:01:02;;;;;;;11.85;4.65;;;;;;;;;;5055385;28;20402;-92
2023/09/27 15:03:28;;;;;;;13.30;4.35;;;;;;;;;;5056398;28;20032;-93
2023/09/27 15:05:54;;;;;;;7.13;4.93;;;;;;;;;;5039619;28;20029;-93
2023/09/27 15:08:20;;;;;;;10.00;4.70;;;;;;;;;;5057927;28;20423;-92
2023/09/27 15:10:46;;;;;;;14.27;4.90;;;;;;;;;;5057884;28;20059;-90
2023/09/27 15:15:57;;;;;;;8.82;4.43;;;;;;;;;;5071965;28;20070;-92
2023/09/27 15:21:10;;;;;;;9.63;4.25;;;;;;;;;;5054304;28;20035;-92
2023/09/27 15:23:36;;;;;;;8.73;4.50;;;;;;;;;;5045696;28;20365;-80
2023/09/27 15:26:02;;;;;;;10.98;5.30;;;;;;;;;;5048299;28;20030;-78
2023/09/27 15:31:14;;;;;;;8.18;4.78;;;;;;;;;;5056811;28;20469;-78
2023/09/27 15:33:40;;;;;;;11.77;4.28;;;;;;;;;;5030836;28;20427;-78
2023/09/27 15:36:07;;;;;;;7.55;4.30;;;;;;;;;;5054832;28;20025;-78
2023/09/27 15:38:36;;;;;;;10.55;5.03;;;;;;;;;;5038012;28;20045;-78
2023/09/27 15:41:04;;;;;;;9.50;4.53;;;;;;;;;;5056573;28;20036;-78
2023/09/27 15:43:32;;;;;;;9.05;3.92;;;;;;;;;;5056636;28;20108;-86
2023/09/27 15:45:58;;;;;;;12.57;4.65;;;;;;;;;;5057446;28;20017;-86
2023/09/27 15:48:29;;;;;;;13.77;4.68;;;;;;;;;;5049074;28;20029;-86
2023/09/27 15:50:55;;;;;;;;;;;;;;;;;;5025196;28;20021;-86
2023/09/27 15:53:22;;;;;;;7.85;4.63;;;;;;;;;;5056150;28;19927;-87
2023/09/27 15:55:48;;;;;;;9.65;4.57;;;;;;;;;;5035460;28;20440;-88
2023/09/27 15:58:14;;;;;;;10.20;4.75;;;;;;;;;;5037455;28;20041;-87
2023/09/27 16:00:42;;;;;;;11.50;4.50;;;;;;;;;;5057076;28;20092;-87
2023/09/27 16:03:09;;;;;;;12.98;4.78;;;;;;;;;;5057063;28;20044;-88
2023/09/27 16:05:35;;;;;;;13.40;5.68;;;;;;;;;;5057122;28;20071;-87
2023/09/27 16:08:01;;;;;;;11.82;5.07;;;;;;;;;;5057123;28;20053;-87
2023/09/27 16:10:27;;;;;;;14.07;5.45;;;;;;;;;;5056896;28;20021;-88
2023/09/27 16:12:53;;;;;;;12.32;4.97;;;;;;;;;;5057082;28;20017;-87
2023/09/27 16:15:19;;;;;;;9.63;4.97;;;;;;;;;;5056886;28;20029;-87
2023/09/27 16:17:45;;;;;;;12.82;5.53;;;;;;;;;;5041739;28;20024;-87
2023/09/27 16:20:11;;;;;;;13.15;5.40;;;;;;;;;;5042942;28;20125;-87
2023/09/27 16:22:37;;;;;;;13.82;5.18;;;;;;;;;;5042953;28;20601;-87